sensor_id;sensor_type;location;lat;lon;timestamp;temperature;humidity
50758;DHT22;36732;47.980;11.652;2023-06-01T00:01:49;19.30;51.60
50758;DHT22;36732;47.980;11.652;2023-06-01T00:04:15;19.20;51.60
50758;DHT22;36732;47.980;11.652;2023-06-01T00:06:42;19.30;51.70
50758;DHT22;36732;47.980;11.652;2023-06-01T00:09:09;19.30;51.70
50758;DHT22;36732;47.980;11.652;2023-06-01T00:11:35;19.20;51.70
50758;DHT22;36732;47.980;11.652;2023-06-01T00:14:01;19.20;51.70
50758;DHT22;36732;47.980;11.652;2023-06-01T00:16:27;19.20;51.70
50758;DHT22;36732;47.980;11.652;2023-06-01T00:18:56;19.20;51.80
50758;DHT22;36732;47.980;11.652;2023-06-01T00:21:22;19.10;51.70
50758;DHT22;36732;47.980;11.652;2023-06-01T00:23:49;19.10;51.80
50758;DHT22;36732;47.980;11.652;2023-06-01T00:26:15;19.10;51.70
50758;DHT22;36732;47.980;11.652;2023-06-01T00:28:41;19.10;51.80
50758;DHT22;36732;47.980;11.652;2023-06-01T00:31:07;19.10;51.80
50758;DHT22;36732;47.980;11.652;2023-06-01T00:33:32;19.00;51.60
50758;DHT22;36732;47.980;11.652;2023-06-01T00:35:58;19.00;51.60
50758;DHT22;36732;47.980;11.652;2023-06-01T00:38:24;19.00;51.70
50758;DHT22;36732;47.980;11.652;2023-06-01T00:40:50;19.00;51.60
50758;DHT22;36732;47.980;11.652;2023-06-01T00:43:17;19.00;51.60
50758;DHT22;36732;47.980;11.652;2023-06-01T00:45:44;18.90;51.50
50758;DHT22;36732;47.980;11.652;2023-06-01T00:48:11;18.90;51.60
50758;DHT22;36732;47.980;11.652;2023-06-01T00:50:38;18.90;51.50
50758;DHT22;36732;47.980;11.652;2023-06-01T00:53:07;18.90;51.50
50758;DHT22;36732;47.980;11.652;2023-06-01T00:55:35;18.90;51.70
50758;DHT22;36732;47.980;11.652;2023-06-01T00:58:01;18.80;51.60
50758;DHT22;36732;47.980;11.652;2023-06-01T01:00:29;18.80;51.60
50758;DHT22;36732;47.980;11.652;2023-06-01T01:02:55;18.80;51.60
50758;DHT22;36732;47.980;11.652;2023-06-01T01:05:22;18.80;51.60
50758;DHT22;36732;47.980;11.652;2023-06-01T01:08:07;18.80;51.60
50758;DHT22;36732;47.980;11.652;2023-06-01T01:10:53;18.70;51.60
50758;DHT22;36732;47.980;11.652;2023-06-01T01:13:31;18.70;51.50
50758;DHT22;36732;47.980;11.652;2023-06-01T01:16:10;18.70;51.60
50758;DHT22;36732;47.980;11.652;2023-06-01T01:18:46;18.70;51.70
50758;DHT22;36732;47.980;11.652;2023-06-01T01:21:21;18.70;51.70
50758;DHT22;36732;47.980;11.652;2023-06-01T01:24:03;18.70;51.60
50758;DHT22;36732;47.980;11.652;2023-06-01T01:26:52;18.70;51.60
50758;DHT22;36732;47.980;11.652;2023-06-01T01:29:24;18.70;51.50
50758;DHT22;36732;47.980;11.652;2023-06-01T01:31:52;18.60;51.50
50758;DHT22;36732;47.980;11.652;2023-06-01T01:34:20;18.60;51.50
50758;DHT22;36732;47.980;11.652;2023-06-01T01:36:46;18.60;51.70
50758;DHT22;36732;47.980;11.652;2023-06-01T01:39:12;18.50;51.70
50758;DHT22;36732;47.980;11.652;2023-06-01T01:41:38;18.60;51.80
50758;DHT22;36732;47.980;11.652;2023-06-01T01:44:04;18.50;51.70
50758;DHT22;36732;47.980;11.652;2023-06-01T01:46:36;18.50;51.60
50758;DHT22;36732;47.980;11.652;2023-06-01T01:49:28;18.50;52.30
50758;DHT22;36732;47.980;11.652;2023-06-01T01:52:06;18.50;51.70
50758;DHT22;36732;47.980;11.652;2023-06-01T01:54:37;18.50;51.70
50758;DHT22;36732;47.980;11.652;2023-06-01T01:57:08;18.50;51.60
50758;DHT22;36732;47.980;11.652;2023-06-01T01:59:34;18.40;51.40
50758;DHT22;36732;47.980;11.652;2023-06-01T02:02:01;18.40;51.50
50758;DHT22;36732;47.980;11.652;2023-06-01T02:04:28;18.40;51.50
50758;DHT22;36732;47.980;11.652;2023-06-01T02:06:54;18.40;51.50
50758;DHT22;36732;47.980;11.652;2023-06-01T02:09:20;18.40;51.60
50758;DHT22;36732;47.980;11.652;2023-06-01T02:11:45;18.30;51.60
50758;DHT22;36732;47.980;11.652;2023-06-01T02:14:11;18.30;51.50
50758;DHT22;36732;47.980;11.652;2023-06-01T02:16:37;18.30;51.50
50758;DHT22;36732;47.980;11.652;2023-06-01T02:19:03;18.30;51.60
50758;DHT22;36732;47.980;11.652;2023-06-01T02:21:29;18.20;51.50
50758;DHT22;36732;47.980;11.652;2023-06-01T02:23:56;18.20;51.50
50758;DHT22;36732;47.980;11.652;2023-06-01T02:26:29;18.20;51.60
50758;DHT22;36732;47.980;11.652;2023-06-01T02:28:56;18.20;51.60
50758;DHT22;36732;47.980;11.652;2023-06-01T02:31:22;18.20;51.60
50758;DHT22;36732;47.980;11.652;2023-06-01T02:33:48;18.20;51.60
50758;DHT22;36732;47.980;11.652;2023-06-01T02:36:14;18.20;51.60
50758;DHT22;36732;47.980;11.652;2023-06-01T02:38:42;18.20;51.60
50758;DHT22;36732;47.980;11.652;2023-06-01T02:41:08;18.10;51.60
50758;DHT22;36732;47.980;11.652;2023-06-01T02:43:34;18.10;51.60
50758;DHT22;36732;47.980;11.652;2023-06-01T02:46:01;18.10;51.60
50758;DHT22;36732;47.980;11.652;2023-06-01T02:48:26;18.10;51.60
50758;DHT22;36732;47.980;11.652;2023-06-01T02:50:53;18.10;51.60
50758;DHT22;36732;47.980;11.652;2023-06-01T02:53:19;18.00;51.60
50758;DHT22;36732;47.980;11.652;2023-06-01T02:55:44;18.10;51.70
50758;DHT22;36732;47.980;11.652;2023-06-01T02:58:10;18.00;52.30
50758;DHT22;36732;47.980;11.652;2023-06-01T03:00:42;18.00;51.60
50758;DHT22;36732;47.980;11.652;2023-06-01T03:03:08;18.00;51.60
50758;DHT22;36732;47.980;11.652;2023-06-01T03:05:34;18.00;51.70
50758;DHT22;36732;47.980;11.652;2023-06-01T03:08:01;18.00;51.70
50758;DHT22;36732;47.980;11.652;2023-06-01T03:10:27;18.00;51.70
50758;DHT22;36732;47.980;11.652;2023-06-01T03:12:53;17.90;51.60
50758;DHT22;36732;47.980;11.652;2023-06-01T03:15:20;17.90;51.60
50758;DHT22;36732;47.980;11.652;2023-06-01T03:17:46;17.90;51.60
50758;DHT22;36732;47.980;11.652;2023-06-01T03:20:11;17.90;51.60
50758;DHT22;36732;47.980;11.652;2023-06-01T03:22:46;17.90;51.60
50758;DHT22;36732;47.980;11.652;2023-06-01T03:25:12;17.90;51.70
50758;DHT22;36732;47.980;11.652;2023-06-01T03:27:39;17.80;51.60
50758;DHT22;36732;47.980;11.652;2023-06-01T03:30:06;17.80;51.70
50758;DHT22;36732;47.980;11.652;2023-06-01T03:32:39;17.80;51.70
50758;DHT22;36732;47.980;11.652;2023-06-01T03:35:07;17.80;51.70
50758;DHT22;36732;47.980;11.652;2023-06-01T03:37:34;17.80;51.80
50758;DHT22;36732;47.980;11.652;2023-06-01T03:40:01;17.80;51.90
50758;DHT22;36732;47.980;11.652;2023-06-01T03:42:54;17.80;51.90
50758;DHT22;36732;47.980;11.652;2023-06-01T03:45:19;17.80;51.90
50758;DHT22;36732;47.980;11.652;2023-06-01T03:47:45;17.70;52.00
50758;DHT22;36732;47.980;11.652;2023-06-01T03:50:11;17.70;51.90
50758;DHT22;36732;47.980;11.652;2023-06-01T03:52:37;17.70;52.10
50758;DHT22;36732;47.980;11.652;2023-06-01T03:55:05;17.70;52.20
50758;DHT22;36732;47.980;11.652;2023-06-01T03:57:34;17.70;52.30
50758;DHT22;36732;47.980;11.652;2023-06-01T04:00:05;17.60;52.40
50758;DHT22;36732;47.980;11.652;2023-06-01T04:02:45;17.70;52.50
50758;DHT22;36732;47.980;11.652;2023-06-01T04:05:14;17.60;52.50
50758;DHT22;36732;47.980;11.652;2023-06-01T04:07:44;17.60;52.60
50758;DHT22;36732;47.980;11.652;2023-06-01T04:10:11;17.60;52.80
50758;DHT22;36732;47.980;11.652;2023-06-01T04:12:40;17.60;52.90
50758;DHT22;36732;47.980;11.652;2023-06-01T04:15:07;17.60;53.00
50758;DHT22;36732;47.980;11.652;2023-06-01T04:17:36;17.60;53.10
50758;DHT22;36732;47.980;11.652;2023-06-01T04:20:04;17.60;53.20
50758;DHT22;36732;47.980;11.652;2023-06-01T04:22:37;17.60;53.30
50758;DHT22;36732;47.980;11.652;2023-06-01T04:25:06;17.60;53.50
50758;DHT22;36732;47.980;11.652;2023-06-01T04:27:47;17.60;53.80
50758;DHT22;36732;47.980;11.652;2023-06-01T04:30:15;17.60;54.00
50758;DHT22;36732;47.980;11.652;2023-06-01T04:32:41;17.60;54.60
50758;DHT22;36732;47.980;11.652;2023-06-01T04:35:09;17.60;54.10
50758;DHT22;36732;47.980;11.652;2023-06-01T04:37:37;17.60;54.10
50758;DHT22;36732;47.980;11.652;2023-06-01T04:40:06;17.60;54.10
50758;DHT22;36732;47.980;11.652;2023-06-01T04:42:34;17.70;54.20
50758;DHT22;36732;47.980;11.652;2023-06-01T04:45:01;17.70;54.50
50758;DHT22;36732;47.980;11.652;2023-06-01T04:47:39;17.70;54.80
50758;DHT22;36732;47.980;11.652;2023-06-01T04:50:09;17.70;55.10
50758;DHT22;36732;47.980;11.652;2023-06-01T04:52:40;17.70;55.50
50758;DHT22;36732;47.980;11.652;2023-06-01T04:55:07;17.70;55.70
50758;DHT22;36732;47.980;11.652;2023-06-01T04:57:34;17.70;55.60
50758;DHT22;36732;47.980;11.652;2023-06-01T05:00:05;17.70;55.70
50758;DHT22;36732;47.980;11.652;2023-06-01T05:02:42;17.70;55.80
50758;DHT22;36732;47.980;11.652;2023-06-01T05:05:09;17.80;56.20
50758;DHT22;36732;47.980;11.652;2023-06-01T05:07:36;17.80;55.80
50758;DHT22;36732;47.980;11.652;2023-06-01T05:10:07;17.80;56.10
50758;DHT22;36732;47.980;11.652;2023-06-01T05:12:35;17.80;56.30
50758;DHT22;36732;47.980;11.652;2023-06-01T05:15:05;17.80;56.20
50758;DHT22;36732;47.980;11.652;2023-06-01T05:17:33;17.80;56.70
50758;DHT22;36732;47.980;11.652;2023-06-01T05:19:58;17.90;56.60
50758;DHT22;36732;47.980;11.652;2023-06-01T05:22:25;17.90;56.70
50758;DHT22;36732;47.980;11.652;2023-06-01T05:24:51;17.90;56.70
50758;DHT22;36732;47.980;11.652;2023-06-01T05:27:17;17.90;56.70
50758;DHT22;36732;47.980;11.652;2023-06-01T05:29:43;18.00;56.80
50758;DHT22;36732;47.980;11.652;2023-06-01T05:32:09;18.00;57.00
50758;DHT22;36732;47.980;11.652;2023-06-01T05:34:35;18.10;57.20
50758;DHT22;36732;47.980;11.652;2023-06-01T05:37:01;18.10;57.40
50758;DHT22;36732;47.980;11.652;2023-06-01T05:39:28;18.10;57.30
50758;DHT22;36732;47.980;11.652;2023-06-01T05:41:54;18.10;57.30
50758;DHT22;36732;47.980;11.652;2023-06-01T05:44:21;18.10;57.60
50758;DHT22;36732;47.980;11.652;2023-06-01T05:46:47;18.20;57.40
50758;DHT22;36732;47.980;11.652;2023-06-01T05:49:13;18.20;57.30
50758;DHT22;36732;47.980;11.652;2023-06-01T05:51:40;18.20;57.30
50758;DHT22;36732;47.980;11.652;2023-06-01T05:54:06;18.30;57.40
50758;DHT22;36732;47.980;11.652;2023-06-01T05:56:32;18.30;57.30
50758;DHT22;36732;47.980;11.652;2023-06-01T05:58:58;18.30;57.30
50758;DHT22;36732;47.980;11.652;2023-06-01T06:01:25;18.40;57.40
50758;DHT22;36732;47.980;11.652;2023-06-01T06:03:52;18.40;57.50
50758;DHT22;36732;47.980;11.652;2023-06-01T06:06:18;18.40;57.50
50758;DHT22;36732;47.980;11.652;2023-06-01T06:08:44;18.40;57.30
50758;DHT22;36732;47.980;11.652;2023-06-01T06:11:10;18.50;57.50
50758;DHT22;36732;47.980;11.652;2023-06-01T06:13:35;18.50;57.50
50758;DHT22;36732;47.980;11.652;2023-06-01T06:16:01;18.50;57.70
50758;DHT22;36732;47.980;11.652;2023-06-01T06:18:27;18.50;57.70
50758;DHT22;36732;47.980;11.652;2023-06-01T06:20:53;18.60;57.70
50758;DHT22;36732;47.980;11.652;2023-06-01T06:23:18;18.60;57.80
50758;DHT22;36732;47.980;11.652;2023-06-01T06:25:46;18.60;57.40
50758;DHT22;36732;47.980;11.652;2023-06-01T06:28:14;18.60;57.30
50758;DHT22;36732;47.980;11.652;2023-06-01T06:30:40;18.60;57.30
50758;DHT22;36732;47.980;11.652;2023-06-01T06:33:06;18.70;57.30
50758;DHT22;36732;47.980;11.652;2023-06-01T06:35:32;18.70;57.20
50758;DHT22;36732;47.980;11.652;2023-06-01T06:37:57;18.70;57.10
50758;DHT22;36732;47.980;11.652;2023-06-01T06:40:23;18.70;57.20
50758;DHT22;36732;47.980;11.652;2023-06-01T06:42:49;18.70;57.30
50758;DHT22;36732;47.980;11.652;2023-06-01T06:45:16;18.70;57.20
50758;DHT22;36732;47.980;11.652;2023-06-01T06:47:42;18.80;57.10
50758;DHT22;36732;47.980;11.652;2023-06-01T06:50:11;18.80;56.90
50758;DHT22;36732;47.980;11.652;2023-06-01T06:52:37;18.80;56.90
50758;DHT22;36732;47.980;11.652;2023-06-01T06:55:03;18.80;56.90
50758;DHT22;36732;47.980;11.652;2023-06-01T06:57:30;18.80;57.60
50758;DHT22;36732;47.980;11.652;2023-06-01T06:59:55;18.80;57.00
50758;DHT22;36732;47.980;11.652;2023-06-01T07:02:21;18.80;57.00
50758;DHT22;36732;47.980;11.652;2023-06-01T07:04:47;18.90;57.20
50758;DHT22;36732;47.980;11.652;2023-06-01T07:07:14;18.90;57.10
50758;DHT22;36732;47.980;11.652;2023-06-01T07:09:40;18.90;57.10
50758;DHT22;36732;47.980;11.652;2023-06-01T07:12:06;18.90;57.20
50758;DHT22;36732;47.980;11.652;2023-06-01T07:14:33;18.90;57.20
50758;DHT22;36732;47.980;11.652;2023-06-01T07:17:00;19.00;57.50
50758;DHT22;36732;47.980;11.652;2023-06-01T07:19:25;19.00;57.50
50758;DHT22;36732;47.980;11.652;2023-06-01T07:22:01;19.00;57.50
50758;DHT22;36732;47.980;11.652;2023-06-01T07:24:27;19.00;57.50
50758;DHT22;36732;47.980;11.652;2023-06-01T07:26:53;19.00;57.40
50758;DHT22;36732;47.980;11.652;2023-06-01T07:29:21;19.00;57.30
50758;DHT22;36732;47.980;11.652;2023-06-01T07:31:46;19.10;57.40
50758;DHT22;36732;47.980;11.652;2023-06-01T07:34:12;19.10;57.40
50758;DHT22;36732;47.980;11.652;2023-06-01T07:36:39;19.10;57.40
50758;DHT22;36732;47.980;11.652;2023-06-01T07:39:05;19.10;58.10
50758;DHT22;36732;47.980;11.652;2023-06-01T07:41:35;19.10;57.40
50758;DHT22;36732;47.980;11.652;2023-06-01T07:44:00;19.10;57.30
50758;DHT22;36732;47.980;11.652;2023-06-01T07:46:26;19.10;57.30
50758;DHT22;36732;47.980;11.652;2023-06-01T07:48:52;19.20;57.30
50758;DHT22;36732;47.980;11.652;2023-06-01T07:51:18;19.20;57.20
50758;DHT22;36732;47.980;11.652;2023-06-01T07:53:43;19.20;57.30
50758;DHT22;36732;47.980;11.652;2023-06-01T07:56:09;19.20;57.60
50758;DHT22;36732;47.980;11.652;2023-06-01T07:58:36;19.20;57.70
50758;DHT22;36732;47.980;11.652;2023-06-01T08:01:03;19.20;57.70
50758;DHT22;36732;47.980;11.652;2023-06-01T08:03:29;19.30;57.80
50758;DHT22;36732;47.980;11.652;2023-06-01T08:06:01;19.30;57.70
50758;DHT22;36732;47.980;11.652;2023-06-01T08:08:28;19.30;57.80
50758;DHT22;36732;47.980;11.652;2023-06-01T08:10:54;19.30;57.70
50758;DHT22;36732;47.980;11.652;2023-06-01T08:13:20;19.30;57.70
50758;DHT22;36732;47.980;11.652;2023-06-01T08:15:45;19.30;57.80
50758;DHT22;36732;47.980;11.652;2023-06-01T08:18:13;19.40;58.00
50758;DHT22;36732;47.980;11.652;2023-06-01T08:20:39;19.40;57.50
50758;DHT22;36732;47.980;11.652;2023-06-01T08:23:05;19.40;57.20
50758;DHT22;36732;47.980;11.652;2023-06-01T08:25:31;19.40;56.90
50758;DHT22;36732;47.980;11.652;2023-06-01T08:27:57;19.40;56.70
50758;DHT22;36732;47.980;11.652;2023-06-01T08:30:25;19.50;56.80
50758;DHT22;36732;47.980;11.652;2023-06-01T08:32:51;19.50;56.70
50758;DHT22;36732;47.980;11.652;2023-06-01T08:35:17;19.50;56.90
50758;DHT22;36732;47.980;11.652;2023-06-01T08:37:46;19.50;56.80
50758;DHT22;36732;47.980;11.652;2023-06-01T08:40:13;19.50;56.90
50758;DHT22;36732;47.980;11.652;2023-06-01T08:45:29;19.50;56.90
50758;DHT22;36732;47.980;11.652;2023-06-01T08:47:55;19.60;57.00
50758;DHT22;36732;47.980;11.652;2023-06-01T08:50:23;19.60;57.00
50758;DHT22;36732;47.980;11.652;2023-06-01T08:52:53;19.60;57.10
50758;DHT22;36732;47.980;11.652;2023-06-01T08:55:22;19.70;57.40
50758;DHT22;36732;47.980;11.652;2023-06-01T08:57:49;19.60;57.30
50758;DHT22;36732;47.980;11.652;2023-06-01T09:00:15;19.60;57.30
50758;DHT22;36732;47.980;11.652;2023-06-01T09:02:43;19.70;57.50
50758;DHT22;36732;47.980;11.652;2023-06-01T09:05:09;19.70;57.80
50758;DHT22;36732;47.980;11.652;2023-06-01T09:07:37;19.70;57.80
50758;DHT22;36732;47.980;11.652;2023-06-01T09:10:03;19.70;57.40
50758;DHT22;36732;47.980;11.652;2023-06-01T09:12:30;19.70;57.20
50758;DHT22;36732;47.980;11.652;2023-06-01T09:15:16;19.70;57.20
50758;DHT22;36732;47.980;11.652;2023-06-01T09:17:44;19.80;57.40
50758;DHT22;36732;47.980;11.652;2023-06-01T09:20:28;19.80;57.30
50758;DHT22;36732;47.980;11.652;2023-06-01T09:22:55;19.80;57.30
50758;DHT22;36732;47.980;11.652;2023-06-01T09:25:28;19.90;57.80
50758;DHT22;36732;47.980;11.652;2023-06-01T09:27:57;19.90;57.70
50758;DHT22;36732;47.980;11.652;2023-06-01T09:30:26;19.90;57.20
50758;DHT22;36732;47.980;11.652;2023-06-01T09:33:13;19.90;57.00
50758;DHT22;36732;47.980;11.652;2023-06-01T09:38:09;20.00;56.60
50758;DHT22;36732;47.980;11.652;2023-06-01T09:40:38;20.00;56.60
50758;DHT22;36732;47.980;11.652;2023-06-01T09:43:22;20.00;56.30
50758;DHT22;36732;47.980;11.652;2023-06-01T09:46:08;20.00;56.20
50758;DHT22;36732;47.980;11.652;2023-06-01T09:48:35;20.10;56.00
50758;DHT22;36732;47.980;11.652;2023-06-01T09:51:02;20.10;55.80
50758;DHT22;36732;47.980;11.652;2023-06-01T09:53:28;20.10;55.90
50758;DHT22;36732;47.980;11.652;2023-06-01T09:56:00;20.10;55.90
50758;DHT22;36732;47.980;11.652;2023-06-01T09:58:28;20.10;55.10
50758;DHT22;36732;47.980;11.652;2023-06-01T10:00:54;20.20;55.50
50758;DHT22;36732;47.980;11.652;2023-06-01T10:03:21;20.20;55.60
50758;DHT22;36732;47.980;11.652;2023-06-01T10:05:47;20.20;55.70
50758;DHT22;36732;47.980;11.652;2023-06-01T10:08:15;20.20;55.30
50758;DHT22;36732;47.980;11.652;2023-06-01T10:10:45;20.20;54.90
50758;DHT22;36732;47.980;11.652;2023-06-01T10:13:12;20.20;54.70
50758;DHT22;36732;47.980;11.652;2023-06-01T10:15:38;20.30;54.30
50758;DHT22;36732;47.980;11.652;2023-06-01T10:18:05;20.30;54.60
50758;DHT22;36732;47.980;11.652;2023-06-01T10:20:35;20.30;54.50
50758;DHT22;36732;47.980;11.652;2023-06-01T10:23:03;20.30;54.20
50758;DHT22;36732;47.980;11.652;2023-06-01T10:25:40;20.30;54.30
50758;DHT22;36732;47.980;11.652;2023-06-01T10:28:11;20.40;54.00
50758;DHT22;36732;47.980;11.652;2023-06-01T10:30:37;20.40;53.90
50758;DHT22;36732;47.980;11.652;2023-06-01T10:33:03;20.40;53.80
50758;DHT22;36732;47.980;11.652;2023-06-01T10:40:35;20.50;53.70
50758;DHT22;36732;47.980;11.652;2023-06-01T10:43:02;20.50;53.70
50758;DHT22;36732;47.980;11.652;2023-06-01T10:48:02;20.50;52.80
50758;DHT22;36732;47.980;11.652;2023-06-01T10:50:29;20.50;53.40
50758;DHT22;36732;47.980;11.652;2023-06-01T10:52:56;20.50;52.50
50758;DHT22;36732;47.980;11.652;2023-06-01T10:55:26;20.50;51.60
50758;DHT22;36732;47.980;11.652;2023-06-01T10:58:21;20.50;51.20
50758;DHT22;36732;47.980;11.652;2023-06-01T11:00:52;20.50;51.80
50758;DHT22;36732;47.980;11.652;2023-06-01T11:03:46;20.60;52.60
50758;DHT22;36732;47.980;11.652;2023-06-01T11:06:35;20.60;52.50
50758;DHT22;36732;47.980;11.652;2023-06-01T11:09:07;20.60;52.50
50758;DHT22;36732;47.980;11.652;2023-06-01T11:14:24;20.60;52.80
50758;DHT22;36732;47.980;11.652;2023-06-01T11:16:53;20.60;52.60
50758;DHT22;36732;47.980;11.652;2023-06-01T11:21:58;20.70;53.10
50758;DHT22;36732;47.980;11.652;2023-06-01T11:24:34;20.70;52.50
50758;DHT22;36732;47.980;11.652;2023-06-01T11:27:06;20.70;52.80
50758;DHT22;36732;47.980;11.652;2023-06-01T11:29:33;20.70;52.10
50758;DHT22;36732;47.980;11.652;2023-06-01T11:32:02;20.70;52.30
50758;DHT22;36732;47.980;11.652;2023-06-01T11:34:32;20.70;52.00
50758;DHT22;36732;47.980;11.652;2023-06-01T11:37:14;20.80;52.00
50758;DHT22;36732;47.980;11.652;2023-06-01T11:39:41;20.80;51.00
50758;DHT22;36732;47.980;11.652;2023-06-01T11:44:39;20.80;51.50
50758;DHT22;36732;47.980;11.652;2023-06-01T11:47:07;20.80;52.10
50758;DHT22;36732;47.980;11.652;2023-06-01T11:49:48;20.90;52.10
50758;DHT22;36732;47.980;11.652;2023-06-01T11:52:15;20.90;51.90
50758;DHT22;36732;47.980;11.652;2023-06-01T11:54:41;20.90;51.60
50758;DHT22;36732;47.980;11.652;2023-06-01T11:57:08;20.90;52.00
50758;DHT22;36732;47.980;11.652;2023-06-01T11:59:45;20.90;51.70
50758;DHT22;36732;47.980;11.652;2023-06-01T12:05:03;20.90;51.70
50758;DHT22;36732;47.980;11.652;2023-06-01T12:07:53;21.00;51.60
50758;DHT22;36732;47.980;11.652;2023-06-01T12:10:21;21.00;51.70
50758;DHT22;36732;47.980;11.652;2023-06-01T12:12:47;21.00;51.20
50758;DHT22;36732;47.980;11.652;2023-06-01T12:15:14;21.10;51.40
50758;DHT22;36732;47.980;11.652;2023-06-01T12:17:48;21.00;51.50
50758;DHT22;36732;47.980;11.652;2023-06-01T12:20:28;21.00;51.40
50758;DHT22;36732;47.980;11.652;2023-06-01T12:25:58;21.10;51.00
50758;DHT22;36732;47.980;11.652;2023-06-01T12:28:25;21.10;50.80
50758;DHT22;36732;47.980;11.652;2023-06-01T12:31:08;21.10;50.90
50758;DHT22;36732;47.980;11.652;2023-06-01T12:33:39;21.10;50.50
50758;DHT22;36732;47.980;11.652;2023-06-01T12:36:07;21.20;50.80
50758;DHT22;36732;47.980;11.652;2023-06-01T12:38:50;21.10;50.50
50758;DHT22;36732;47.980;11.652;2023-06-01T12:41:17;21.20;50.30
50758;DHT22;36732;47.980;11.652;2023-06-01T12:43:47;21.20;50.20
50758;DHT22;36732;47.980;11.652;2023-06-01T12:46:22;21.20;50.40
50758;DHT22;36732;47.980;11.652;2023-06-01T12:48:51;21.20;50.20
50758;DHT22;36732;47.980;11.652;2023-06-01T12:51:19;21.20;50.30
50758;DHT22;36732;47.980;11.652;2023-06-01T12:53:47;21.30;50.00
50758;DHT22;36732;47.980;11.652;2023-06-01T12:56:13;21.30;50.10
50758;DHT22;36732;47.980;11.652;2023-06-01T12:58:39;21.30;50.30
50758;DHT22;36732;47.980;11.652;2023-06-01T13:01:05;21.30;50.50
50758;DHT22;36732;47.980;11.652;2023-06-01T13:03:32;21.30;50.60
50758;DHT22;36732;47.980;11.652;2023-06-01T13:05:58;21.30;50.70
50758;DHT22;36732;47.980;11.652;2023-06-01T13:08:25;21.40;50.60
50758;DHT22;36732;47.980;11.652;2023-06-01T13:10:52;21.40;50.70
50758;DHT22;36732;47.980;11.652;2023-06-01T13:13:17;21.40;50.40
50758;DHT22;36732;47.980;11.652;2023-06-01T13:15:44;21.40;50.30
50758;DHT22;36732;47.980;11.652;2023-06-01T13:18:13;21.40;50.90
50758;DHT22;36732;47.980;11.652;2023-06-01T13:20:38;21.40;49.90
50758;DHT22;36732;47.980;11.652;2023-06-01T13:23:05;21.40;49.70
50758;DHT22;36732;47.980;11.652;2023-06-01T13:25:31;21.50;49.90
50758;DHT22;36732;47.980;11.652;2023-06-01T13:27:58;21.50;49.70
50758;DHT22;36732;47.980;11.652;2023-06-01T13:30:25;21.50;49.80
50758;DHT22;36732;47.980;11.652;2023-06-01T13:32:51;21.50;49.60
50758;DHT22;36732;47.980;11.652;2023-06-01T13:35:16;21.50;49.40
50758;DHT22;36732;47.980;11.652;2023-06-01T13:37:44;21.50;49.60
50758;DHT22;36732;47.980;11.652;2023-06-01T13:40:09;21.50;49.50
50758;DHT22;36732;47.980;11.652;2023-06-01T13:42:36;21.60;48.90
50758;DHT22;36732;47.980;11.652;2023-06-01T13:45:01;21.60;48.80
50758;DHT22;36732;47.980;11.652;2023-06-01T13:47:28;21.60;49.10
50758;DHT22;36732;47.980;11.652;2023-06-01T13:49:54;21.60;48.60
50758;DHT22;36732;47.980;11.652;2023-06-01T13:52:20;21.60;48.60
50758;DHT22;36732;47.980;11.652;2023-06-01T13:54:46;21.60;48.80
50758;DHT22;36732;47.980;11.652;2023-06-01T13:57:11;21.60;48.50
50758;DHT22;36732;47.980;11.652;2023-06-01T13:59:37;21.70;49.60
50758;DHT22;36732;47.980;11.652;2023-06-01T14:02:03;21.70;48.70
50758;DHT22;36732;47.980;11.652;2023-06-01T14:04:30;21.70;48.60
50758;DHT22;36732;47.980;11.652;2023-06-01T14:06:56;21.70;48.50
50758;DHT22;36732;47.980;11.652;2023-06-01T14:09:22;21.70;48.30
50758;DHT22;36732;47.980;11.652;2023-06-01T14:11:49;21.70;48.10
50758;DHT22;36732;47.980;11.652;2023-06-01T14:14:15;21.70;47.70
50758;DHT22;36732;47.980;11.652;2023-06-01T14:16:41;21.80;48.10
50758;DHT22;36732;47.980;11.652;2023-06-01T14:19:07;21.80;48.20
50758;DHT22;36732;47.980;11.652;2023-06-01T14:21:32;21.80;47.90
50758;DHT22;36732;47.980;11.652;2023-06-01T14:24:00;21.80;47.80
50758;DHT22;36732;47.980;11.652;2023-06-01T14:26:26;21.90;48.00
50758;DHT22;36732;47.980;11.652;2023-06-01T14:28:52;21.90;48.00
50758;DHT22;36732;47.980;11.652;2023-06-01T14:31:18;21.90;48.30
50758;DHT22;36732;47.980;11.652;2023-06-01T14:33:47;21.90;48.00
50758;DHT22;36732;47.980;11.652;2023-06-01T14:36:13;21.90;47.80
50758;DHT22;36732;47.980;11.652;2023-06-01T14:38:39;21.90;47.40
50758;DHT22;36732;47.980;11.652;2023-06-01T14:41:06;22.00;47.50
50758;DHT22;36732;47.980;11.652;2023-06-01T14:43:32;22.00;47.30
50758;DHT22;36732;47.980;11.652;2023-06-01T14:45:58;22.00;47.40
50758;DHT22;36732;47.980;11.652;2023-06-01T14:48:24;22.00;47.00
50758;DHT22;36732;47.980;11.652;2023-06-01T14:50:51;22.00;47.30
50758;DHT22;36732;47.980;11.652;2023-06-01T14:53:17;22.00;47.60
50758;DHT22;36732;47.980;11.652;2023-06-01T14:55:43;22.00;47.50
50758;DHT22;36732;47.980;11.652;2023-06-01T14:58:09;22.00;47.70
50758;DHT22;36732;47.980;11.652;2023-06-01T15:00:36;22.00;47.40
50758;DHT22;36732;47.980;11.652;2023-06-01T15:03:03;22.00;47.20
50758;DHT22;36732;47.980;11.652;2023-06-01T15:05:29;22.10;47.10
50758;DHT22;36732;47.980;11.652;2023-06-01T15:07:55;22.10;46.70
50758;DHT22;36732;47.980;11.652;2023-06-01T15:10:21;22.10;46.70
50758;DHT22;36732;47.980;11.652;2023-06-01T15:12:47;22.10;46.70
50758;DHT22;36732;47.980;11.652;2023-06-01T15:15:16;22.10;46.40
50758;DHT22;36732;47.980;11.652;2023-06-01T15:17:43;22.10;46.10
50758;DHT22;36732;47.980;11.652;2023-06-01T15:20:09;22.10;45.60
50758;DHT22;36732;47.980;11.652;2023-06-01T15:22:36;22.10;45.90
50758;DHT22;36732;47.980;11.652;2023-06-01T15:25:01;22.20;46.00
50758;DHT22;36732;47.980;11.652;2023-06-01T15:27:28;22.10;46.10
50758;DHT22;36732;47.980;11.652;2023-06-01T15:29:54;22.20;46.20
50758;DHT22;36732;47.980;11.652;2023-06-01T15:32:19;22.20;46.30
50758;DHT22;36732;47.980;11.652;2023-06-01T15:34:45;22.20;45.70
50758;DHT22;36732;47.980;11.652;2023-06-01T15:37:11;22.20;45.80
50758;DHT22;36732;47.980;11.652;2023-06-01T15:39:38;22.20;45.30
50758;DHT22;36732;47.980;11.652;2023-06-01T15:42:06;22.20;45.40
50758;DHT22;36732;47.980;11.652;2023-06-01T15:44:33;22.30;45.00
50758;DHT22;36732;47.980;11.652;2023-06-01T15:46:59;22.20;44.80
50758;DHT22;36732;47.980;11.652;2023-06-01T15:49:26;22.30;44.90